Latest Weather Observations for Ulladulla

IDN60801

Issued at 10:53 pm EDT Wednesday 1 February 2023 (issued every 10 minutes, with the page automatically refreshed every 10 minutes)

About weather observations | Map of weather stations | Latest weather observations for NSW | Other Formats
Station Details ID: 069138 Name: ULLADULLA AWS Lat: -35.36 Lon: 150.48 Height: 35.7 m
Data from the previous 72 hours. | See also: Recent months at Ulladulla
Date/Time
EDT
Temp
°C
App
Temp
°C
Dew
Point
°C
Rel
Hum
%
Delta-T
°C
Wind Press
QNH
hPa
Press
MSL
hPa
Rain since
9am
mm
Dir  Spd
km/h
Gust
km/h
Spd
kts
Gust
kts
01/10:30pm 22.2 22.8 17.8 76 2.7 SSE 11 15 6 8 1003.4 1003.2 0.0
01/10:00pm 22.2 23.7 18.0 77 2.6 SSE 7 11 4 6 1003.4 1003.2 0.0
01/09:30pm 22.0 23.6 17.8 77 2.6 SSE 6 9 3 5 1003.3 1003.1 0.0
01/09:00pm 22.1 24.4 17.7 76 2.7 SE 2 6 1 3 1003.1 1002.9 0.0
01/08:30pm 22.0 24.2 17.4 75 2.8 SE 2 6 1 3 1002.8 1002.6 0.0
01/08:00pm 22.1 24.2 17.2 74 3.0 SE 2 4 1 2 1002.4 1002.2 0.0
01/07:30pm 22.3 23.9 17.0 72 3.3 SE 4 6 2 3 1002.3 1002.1 0.0
01/07:00pm 22.7 24.2 16.7 69 3.7 SE 4 6 2 3 1002.0 1001.8 0.0
01/06:30pm 23.0 24.6 17.0 69 3.7 SE 4 6 2 3 1001.8 1001.6 0.0
01/06:00pm 22.8 24.0 16.8 69 3.7 SE 6 9 3 5 1001.6 1001.4 0.0
01/05:30pm 23.2 24.3 17.2 69 3.7 SSE 7 9 4 5 1001.7 1001.5 0.0
01/05:00pm 23.2 24.5 17.2 69 3.7 SE 6 9 3 5 1001.8 1001.6 0.0
01/04:30pm 24.0 25.5 18.0 69 3.8 SSE 7 13 4 7 1002.0 1001.8 0.0
01/04:00pm 23.7 24.5 17.2 67 4.0 SSE 9 15 5 8 1002.2 1002.0 0.0
01/03:30pm 24.6 25.5 18.3 68 4.0 SSE 11 20 6 11 1002.3 1002.1 0.0
01/03:00pm 24.5 25.2 18.0 67 4.1 SSE 11 19 6 10 1002.5 1002.3 0.0
01/02:30pm 24.5 24.9 18.2 68 4.0 S 13 19 7 10 1002.6 1002.4 0.0
01/02:00pm 24.6 24.3 17.3 64 4.6 S 15 20 8 11 1002.9 1002.7 0.0
01/01:30pm 23.8 22.8 16.6 64 4.4 S 17 24 9 13 1002.9 1002.7 0.0
01/01:00pm 24.1 23.5 17.6 67 4.1 S 17 24 9 13 1003.3 1003.1 0.0
01/12:30pm 24.2 23.4 17.2 65 4.3 S 17 22 9 12 1003.5 1003.3 0.0
01/12:00pm 24.0 23.8 17.5 67 4.1 S 15 20 8 11 1003.8 1003.6 0.0
01/11:30am 23.6 23.2 17.1 67 4.0 S 15 19 8 10 1003.8 1003.6 0.0
01/11:00am 23.0 22.5 16.8 68 3.8 S 15 20 8 11 1003.9 1003.7 0.0
01/10:30am 23.2 22.4 17.0 68 3.8 SSW 17 22 9 12 1003.9 1003.7 0.0
01/10:00am 23.0 23.0 17.2 70 3.6 SSW 13 19 7 10 1003.9 1003.7 0.0
01/09:30am 22.7 23.5 17.2 71 3.4 SSW 9 15 5 8 1004.0 1003.8 0.0
01/09:00am 22.3 23.0 17.0 72 3.3 SSW 9 13 5 7 1004.1 1003.9 0.0
01/08:30am 21.7 22.5 16.4 72 3.2 SSW 7 13 4 7 1004.0 1003.8 0.0
01/08:00am 21.0 21.9 16.6 76 2.7 W 7 11 4 6 1003.9 1003.7 0.0
01/07:30am 20.0 21.3 17.0 83 1.8 WSW 6 9 3 5 1003.6 1003.4 0.0
01/07:00am 18.7 20.1 16.3 86 1.4 W 4 6 2 3 1003.5 1003.3 0.0
01/06:30am 18.3 19.1 15.9 86 1.4 WSW 6 7 3 4 1003.4 1003.2 0.0
01/06:00am 18.6 19.3 16.0 85 1.6 WSW 7 9 4 5 1003.1 1002.9 0.0
01/05:30am 18.9 19.6 16.1 84 1.7 WSW 7 13 4 7 1003.1 1002.9 0.0
01/05:00am 19.2 19.9 16.2 83 1.8 WSW 7 13 4 7 1003.2 1003.0 0.0
01/04:30am 19.2 20.0 16.4 84 1.7 W 7 9 4 5 1003.3 1003.1 0.0
01/04:00am 19.4 19.4 16.2 82 1.9 WSW 11 15 6 8 1003.1 1002.9 0.0
01/03:30am 19.8 19.9 16.6 82 1.9 SW 11 17 6 9 1003.3 1003.1 0.0
01/03:00am 19.8 20.2 16.4 81 2.1 WSW 9 15 5 8 1003.7 1003.5 0.0
01/02:30am 19.9 20.4 16.5 81 2.0 WSW 9 19 5 10 1004.0 1003.8 0.0
01/02:00am 20.1 20.2 16.5 80 2.2 SW 11 15 6 8 1004.1 1003.9 0.0
01/01:30am 20.4 20.1 16.4 78 2.4 WSW 13 20 7 11 1004.3 1004.1 0.0
01/01:00am 21.4 19.6 17.0 76 2.7 SSW 22 33 12 18 1004.4 1004.2 0.0
01/12:30am 21.4 18.6 16.4 73 3.0 SSW 26 39 14 21 1004.5 1004.3 0.0
01/12:00am 21.4 19.1 16.6 74 2.9 SSW 24 33 13 18 1004.7 1004.5 0.0
 
Date/Time
EDT
Temp
°C
App
Temp
°C
Dew
Point
°C
Rel
Hum
%
Delta-T
°C
Wind Press
QNH
hPa
Press
MSL
hPa
Rain since
9am
mm
Dir  Spd
km/h
Gust
km/h
Spd
kts
Gust
kts
31/11:30pm 21.5 18.9 16.9 75 2.8 SSW 26 37 14 20 1004.9 1004.7 0.0
31/11:00pm 21.5 18.8 16.7 74 2.9 SSW 26 39 14 21 1005.0 1004.8 0.0
31/10:30pm 21.6 18.4 16.3 72 3.2 SSW 28 43 15 23 1005.2 1005.0 0.0
31/10:00pm 21.8 18.8 16.7 73 3.1 SSW 28 37 15 20 1005.3 1005.1 0.0
31/09:30pm 21.9 18.8 16.6 72 3.2 SSW 28 37 15 20 1005.4 1005.2 0.0
31/09:00pm 21.8 18.4 16.7 73 3.1 SSW 30 41 16 22 1005.1 1004.9 0.0
31/08:30pm 21.9 19.9 17.3 75 2.8 SSW 24 33 13 18 1004.8 1004.6 0.0
31/08:00pm 21.8 18.6 17.2 75 2.8 SSW 30 37 16 20 1004.5 1004.3 0.0
31/07:30pm 21.9 19.2 17.5 76 2.7 SSW 28 37 15 20 1004.1 1003.9 0.0
31/07:00pm 22.1 18.9 17.2 74 3.0 SSW 30 37 16 20 1004.2 1004.0 0.0
31/06:30pm 22.3 19.2 17.4 74 3.0 SSW 30 37 16 20 1003.7 1003.5 0.0
31/06:00pm 22.6 19.2 17.7 74 3.1 SSW 32 41 17 22 1003.7 1003.5 0.0
31/05:30pm 22.8 19.6 17.3 71 3.4 SSW 30 39 16 21 1003.7 1003.5 0.0
31/05:00pm 22.9 19.3 17.6 72 3.3 SSW 33 43 18 23 1003.8 1003.6 0.0
31/04:30pm 23.0 19.5 17.9 73 3.2 SSW 33 48 18 26 1004.2 1004.0 0.0
31/04:00pm 22.8 17.8 17.0 70 3.6 SSW 39 48 21 26 1004.3 1004.1 0.0
31/03:30pm 22.9 18.1 17.6 72 3.3 SSW 39 48 21 26 1004.4 1004.2 0.0
31/03:00pm 23.1 17.7 17.1 69 3.7 SSW 41 48 22 26 1004.4 1004.2 0.0
31/02:30pm 22.9 17.9 18.0 74 3.1 SSW 41 50 22 27 1004.5 1004.3 0.0
31/02:00pm 23.1 19.2 17.8 72 3.3 SSW 35 50 19 27 1004.7 1004.5 0.0
31/01:30pm 23.2 20.7 18.1 73 3.2 SSW 28 41 15 22 1005.1 1004.9 0.0
31/01:00pm 23.2 19.5 18.3 74 3.1 SSW 35 46 19 25 1005.2 1005.0 0.0
31/12:30pm 23.1 20.9 18.6 76 2.8 SSW 28 39 15 21 1005.7 1005.5 0.0
31/12:00pm 22.8 20.3 18.1 75 2.9 SSW 28 39 15 21 1005.8 1005.6 0.0
31/11:30am 22.8 20.6 17.9 74 3.1 SSW 26 39 14 21 1006.0 1005.8 0.0
31/11:00am 21.6 20.0 17.4 77 2.6 SW 22 32 12 17 1006.3 1006.1 0.0
31/10:30am 21.0 19.7 17.2 79 2.3 SW 20 32 11 17 1006.4 1006.2 0.0
31/10:00am 20.8 19.6 17.0 79 2.3 SW 19 28 10 15 1006.4 1006.2 0.0
31/09:30am 20.3 19.4 16.9 81 2.1 SW 17 28 9 15 1006.6 1006.4 0.0
31/09:00am 20.0 18.6 16.6 81 2.1 SW 19 28 10 15 1006.7 1006.5 9.6
31/08:30am 19.8 18.3 16.4 81 2.0 SW 19 30 10 16 1006.7 1006.5 9.6
31/08:00am 19.6 18.5 16.4 82 1.9 SW 17 32 9 17 1006.7 1006.5 9.6
31/07:30am 19.4 18.6 16.2 82 1.9 SW 15 24 8 13 1006.6 1006.4 9.6
31/07:00am 19.3 18.1 16.2 82 1.9 SW 17 28 9 15 1006.3 1006.1 9.6
31/06:30am 19.2 18.4 16.1 82 1.9 SW 15 24 8 13 1006.0 1005.8 9.6
31/06:00am 19.1 18.3 16.0 82 1.9 SW 15 22 8 12 1005.9 1005.7 9.6
31/05:30am 19.2 18.0 16.2 83 1.8 SW 17 26 9 14 1005.7 1005.5 9.6
31/05:00am 19.3 17.6 16.3 83 1.8 SW 20 30 11 16 1005.5 1005.3 9.6
31/04:30am 19.2 17.5 16.2 83 1.8 SW 20 30 11 16 1005.7 1005.5 9.6
31/04:00am 19.2 17.7 16.4 84 1.7 SW 19 28 10 15 1005.9 1005.7 9.6
31/03:30am 19.1 18.5 16.7 86 1.4 WSW 15 24 8 13 1006.2 1006.0 9.6
31/03:00am 19.1 18.3 17.1 88 1.2 WSW 17 30 9 16 1006.6 1006.4 9.6
31/02:30am 19.1 18.8 17.4 90 1.0 WSW 15 24 8 13 1006.8 1006.6 9.6
31/02:00am 19.2 18.7 17.7 91 0.9 WSW 17 28 9 15 1007.1 1007.0 9.6
31/01:30am 19.4 18.6 18.1 92 0.8 SW 19 30 10 16 1007.2 1007.1 9.6
31/01:00am 19.4 18.5 18.2 93 0.7 WSW 20 33 11 18 1007.4 1007.3 9.4
31/12:30am 19.5 19.6 18.3 93 0.7 SW 15 24 8 13 1007.6 1007.5 8.6
31/12:00am 19.4 19.4 18.2 93 0.7 WSW 15 24 8 13 1008.0 1007.9 8.2
 
Date/Time
EDT
Temp
°C
App
Temp
°C
Dew
Point
°C
Rel
Hum
%
Delta-T
°C
Wind Press
QNH
hPa
Press
MSL
hPa
Rain since
9am
mm
Dir  Spd
km/h
Gust
km/h
Spd
kts
Gust
kts
30/11:30pm 19.4 18.5 18.2 93 0.7 SW 20 32 11 17 1008.3 1008.2 8.0
30/11:00pm 19.3 18.4 18.1 93 0.7 SW 20 30 11 16 1008.7 1008.6 7.8
30/10:30pm 19.1 18.6 17.9 93 0.7 WSW 17 28 9 15 1009.1 1009.0 7.6
30/10:00pm 19.1 19.0 17.9 93 0.7 WSW 15 24 8 13 1009.2 1009.1 7.6
30/09:30pm 19.1 19.0 17.9 93 0.7 SW 15 22 8 12 1009.2 1009.1 7.4
30/09:00pm 19.1 18.6 17.9 93 0.7 SW 17 24 9 13 1009.2 1009.1 7.4
30/08:30pm 19.1 19.0 17.8 92 0.8 SW 15 24 8 13 1009.1 1009.0 7.4
30/08:00pm 19.4 19.0 18.1 92 0.8 SW 17 24 9 13 1008.9 1008.8 7.4
30/07:30pm 19.8 19.0 18.5 92 0.8 SW 20 32 11 17 1008.8 1008.7 7.4
30/07:00pm 20.1 19.6 18.6 91 0.9 SW 19 28 10 15 1008.6 1008.5 7.2
30/06:30pm 20.6 19.7 19.1 91 0.9 SW 22 35 12 19 1008.4 1008.3 7.2
30/06:00pm 20.6 18.9 18.9 90 1.1 SSW 26 44 14 24 1008.3 1008.2 6.6
30/05:36pm 20.9 18.0 18.8 88 1.3 SSW 32 50 17 27 1008.3 1008.2 6.0
30/05:30pm 21.2 16.6 18.9 87 1.4 SSW 41 50 22 27 1008.2 1008.1 6.0
30/05:00pm 20.8 18.5 19.3 91 1.0 SSW 30 48 16 26 1008.3 1008.2 6.0
30/04:45pm 20.6 18.3 19.3 92 0.8 SSW 30 56 16 30 1008.4 1008.3 6.0
30/04:30pm 20.7 18.1 19.5 93 0.8 SSW 32 52 17 28 1008.7 1008.6 5.8
30/04:00pm 20.6 16.2 19.4 93 0.8 SSW 41 50 22 27 1008.5 1008.4 5.4
30/03:32pm 20.8 18.6 19.5 92 0.8 SSW 30 48 16 26 1008.6 1008.5 5.2
30/03:30pm 20.8 18.2 19.5 92 0.8 SSW 32 48 17 26 1008.6 1008.5 5.2
30/03:15pm 21.1 18.4 19.6 91 1.0 SSW 33 52 18 28 1008.6 1008.5 5.0
30/03:00pm 21.4 17.2 19.7 90 1.1 SSW 41 54 22 29 1008.7 1008.6 4.8
30/02:30pm 21.5 18.0 20.3 93 0.8 SSW 39 48 21 26 1008.7 1008.6 4.8
30/02:00pm 21.6 20.5 20.2 92 0.9 SSW 26 43 14 23 1008.8 1008.7 4.6
30/01:30pm 21.1 22.2 19.6 91 1.0 WSW 13 20 7 11 1009.2 1009.1 2.4
30/01:00pm 21.2 22.2 19.5 90 1.1 WSW 13 22 7 12 1009.5 1009.4 0.8
30/12:30pm 21.5 22.2 19.6 89 1.2 WSW 15 24 8 13 1009.5 1009.4 0.0
30/12:00pm 21.3 22.3 19.4 89 1.2 SW 13 20 7 11 1009.9 1009.8 0.0
30/11:30am 21.7 22.6 20.0 90 1.1 WSW 15 20 8 11 1010.0 1009.9 0.0
30/11:00am 21.4 22.6 19.9 91 1.0 SW 13 20 7 11 1010.3 1010.2 0.0
30/10:30am 21.6 22.5 20.1 91 1.0 SW 15 22 8 12 1010.5 1010.4 0.0
30/10:00am 21.7 23.1 20.3 92 0.9 SW 13 22 7 12 1010.7 1010.6 0.0
30/09:30am 21.5 22.4 20.1 92 0.9 SW 15 20 8 11 1010.6 1010.5 0.0
30/09:00am 21.5 22.1 20.3 93 0.8 SW 17 22 9 12 1010.7 1010.6 7.2
30/08:30am 21.5 22.5 20.3 93 0.8 SW 15 22 8 12 1010.6 1010.5 7.2
30/08:00am 21.6 23.4 20.4 93 0.8 SW 11 17 6 9 1010.4 1010.3 7.2
30/07:30am 21.7 23.2 20.5 93 0.8 SSW 13 19 7 10 1010.0 1009.9 7.2
30/07:00am 22.0 24.4 20.8 93 0.8 SW 9 13 5 7 1009.9 1009.8 7.2
30/06:30am 21.9 24.2 20.7 93 0.8 SSW 9 15 5 8 1009.7 1009.6 7.2
30/06:00am 21.8 25.0 20.4 92 0.9 SSW 4 4 2 2 1009.2 1009.1 7.0
30/05:30am 21.8 24.6 20.4 92 0.9 SSW 6 7 3 4 1009.5 1009.4 6.6
30/05:00am 21.9 25.5 20.5 92 0.9 SSW 2 4 1 2 1009.4 1009.3 6.4
30/04:30am 21.9 24.7 20.5 92 0.9 SSW 6 7 3 4 1009.3 1009.2 6.4
30/04:00am 22.0 25.6 20.6 92 0.9 SSW 2 6 1 3 1009.6 1009.5 6.4
30/03:30am 22.0 26.0 20.6 92 0.9 CALM 0 0 0 0 1009.9 1009.8 6.4
30/03:00am 21.6 24.3 20.2 92 0.9 SW 6 7 3 4 1010.0 1009.9 6.0
30/02:30am 21.8 25.0 20.4 92 0.9 SW 4 6 2 3 1011.0 1010.9 5.6
30/02:00am 21.6 25.0 20.2 92 0.9 SW 2 4 1 2 1011.4 1011.3 5.4
30/01:30am 21.7 25.6 20.3 92 0.9 CALM 0 0 0 0 1011.9 1011.8 4.8
30/01:00am 21.8 25.3 20.4 92 0.9 SW 2 6 1 3 1012.1 1012.0 4.6
30/12:30am 21.8 25.7 20.3 91 1.0 CALM 0 0 0 0 1012.5 1012.4 4.0
30/12:00am 21.9 25.8 20.4 91 1.0 CALM 0 0 0 0 1013.1 1013.0 3.2
 
Date/Time
EDT
Temp
°C
App
Temp
°C
Dew
Point
°C
Rel
Hum
%
Delta-T
°C
Wind Press
QNH
hPa
Press
MSL
hPa
Rain since
9am
mm
Dir  Spd
km/h
Gust
km/h
Spd
kts
Gust
kts
29/11:30pm 21.8 25.6 20.1 90 1.1 CALM 0 0 0 0 1013.3 1013.2 2.8
29/11:00pm 21.7 24.7 20.0 90 1.1 SW 4 6 2 3 1013.7 1013.6 2.4

Other formats

Comma delimited format used in spreadsheet applications
http://www.bom.gov.au/fwo/IDN60801/IDN60801.94938.axf

JavaScript Object Notation format (JSON) in row-major order
http://www.bom.gov.au/fwo/IDN60801/IDN60801.94938.json

Data quality

Most of these data are generated automatically and are frequently updated. Quality checks on data are not normally performed. It is possible for incorrect values to appear. Refer to information at About Latest Weather Observations and please check the disclaimer before using these data.